createdAt,value
2019-04-23T00:00:23.868Z,4.05
2019-04-23T00:03:01.717Z,7.15
2019-04-23T00:05:35.312Z,5.50
2019-04-23T00:07:59.178Z,5.45
2019-04-23T00:10:30.098Z,4.87
2019-04-23T00:13:04.264Z,3.58
2019-04-23T00:18:02.792Z,4.25
2019-04-23T00:20:14.252Z,4.58
2019-04-23T00:28:01.383Z,6.33
2019-04-23T00:30:27.550Z,7.95
2019-04-23T00:32:46.170Z,5.22
2019-04-23T00:35:21.232Z,3.12
2019-04-23T00:37:45.793Z,3.80
2019-04-23T00:40:11.375Z,6.15
2019-04-23T00:42:49.636Z,5.75
2019-04-23T00:45:12.775Z,2.72
2019-04-23T00:47:48.658Z,3.27
2019-04-23T00:50:12.820Z,7.33
2019-04-23T00:52:37.674Z,5.12
2019-04-23T00:55:04.404Z,9.50
2019-04-23T00:57:34.360Z,4.40
2019-04-23T01:00:08.134Z,3.40
2019-04-23T01:02:26.326Z,5.67
2019-04-23T01:04:59.696Z,2.00
2019-04-23T01:07:18.360Z,5.28
2019-04-23T01:10:03.119Z,3.65
2019-04-23T01:12:22.794Z,6.28
2019-04-23T01:14:48.143Z,4.53
2019-04-23T01:17:30.204Z,8.60
2019-04-23T01:19:54.674Z,6.00
2019-04-23T01:22:06.623Z,6.30
2019-04-23T01:24:37.193Z,5.17
2019-04-23T01:30:06.470Z,7.00
2019-04-23T01:32:32.044Z,3.62
2019-04-23T01:35:09.138Z,6.75
2019-04-23T01:37:26.764Z,6.60
2019-04-23T01:39:52.439Z,5.03
2019-04-23T01:42:29.613Z,7.70
2019-04-23T01:44:50.890Z,4.90
2019-04-23T01:47:18.651Z,4.78
2019-04-23T01:49:57.956Z,6.42
2019-04-23T01:52:16.596Z,4.15
2019-04-23T01:54:38.604Z,3.62
2019-04-23T01:57:13.631Z,4.28
2019-04-23T01:59:39.271Z,8.68
2019-04-23T02:02:05.161Z,6.80
2019-04-23T02:04:30.048Z,5.62
2019-04-23T02:06:57.774Z,5.20
2019-04-23T02:09:26.023Z,6.70
2019-04-23T02:14:25.946Z,2.80
2019-04-23T02:16:50.026Z,5.33
2019-04-23T02:22:05.172Z,6.90
2019-04-23T02:24:41.342Z,5.70
2019-04-23T02:27:05.821Z,6.25
2019-04-23T02:29:44.635Z,8.50
2019-04-23T02:37:01.571Z,4.95
2019-04-23T02:39:44.750Z,6.30
2019-04-23T02:42:13.064Z,3.25
2019-04-23T02:46:59.534Z,3.42
2019-04-23T02:49:27.044Z,5.15
2019-04-23T02:51:56.845Z,8.33
2019-04-23T02:59:24.924Z,4.17
2019-04-23T03:06:42.991Z,8.80
2019-04-23T03:09:04.452Z,4.25
2019-04-23T03:11:34.315Z,12.33
2019-04-23T03:14:03.556Z,5.35
2019-04-23T03:19:08.300Z,5.22
2019-04-23T03:24:33.871Z,4.67
2019-04-23T03:27:07.730Z,6.45
2019-04-23T03:39:05.325Z,5.42
2019-04-23T03:44:01.494Z,5.60
2019-04-23T03:49:07.727Z,4.80
2019-04-23T03:51:34.151Z,4.58
2019-04-23T03:54:21.884Z,8.95
2019-04-23T03:59:08.672Z,3.72
2019-04-23T04:06:33.789Z,5.65
2019-04-23T04:08:58.275Z,6.50
2019-04-23T04:11:21.745Z,4.80
2019-04-23T04:16:07.839Z,5.00
2019-04-23T04:21:16.192Z,4.30
2019-04-23T04:23:42.809Z,6.67
2019-04-23T04:26:07.076Z,5.90
2019-04-23T04:28:27.867Z,4.90
2019-04-23T04:30:54.369Z,6.55
2019-04-23T04:33:41.353Z,8.55
2019-04-23T04:36:13.257Z,5.40
2019-04-23T04:38:36.478Z,5.03
2019-04-23T04:43:31.763Z,5.33
2019-04-23T04:46:15.052Z,6.22
2019-04-23T04:48:09.482Z,8.90
2019-04-23T04:53:23.154Z,6.00
2019-04-23T04:58:13.062Z,7.00
2019-04-23T05:00:59.133Z,9.93
2019-04-23T05:03:18.875Z,6.30
2019-04-23T05:07:58.262Z,7.62
2019-04-23T05:10:39.149Z,5.42
2019-04-23T05:13:06.717Z,5.97
2019-04-23T05:15:23.848Z,7.30
2019-04-23T05:17:59.323Z,8.40
2019-04-23T05:20:19.990Z,8.33
2019-04-23T05:22:48.780Z,5.80
2019-04-23T05:25:12.545Z,5.65
2019-04-23T05:27:46.680Z,9.93
2019-04-23T05:30:09.894Z,9.23
2019-04-23T05:32:32.930Z,5.83
2019-04-23T05:35:08.017Z,5.72
2019-04-23T05:37:47.649Z,4.83
2019-04-23T05:40:00.424Z,6.72
2019-04-23T05:42:26.645Z,6.25
2019-04-23T05:44:53.999Z,8.80
2019-04-23T05:47:37.438Z,7.05
2019-04-23T05:49:51.749Z,7.20
2019-04-23T05:52:17.841Z,5.60
2019-04-23T05:54:52.401Z,7.12
2019-04-23T05:57:27.241Z,8.30
2019-04-23T05:59:42.204Z,6.12
2019-04-23T06:02:10.993Z,5.92
2019-04-23T06:04:38.885Z,4.60
2019-04-23T06:07:22.143Z,6.30
2019-04-23T06:09:37.571Z,6.05
2019-04-23T06:14:32.884Z,9.85
2019-04-23T06:16:57.489Z,10.40
2019-04-23T06:19:22.768Z,5.72
2019-04-23T06:26:54.293Z,8.78
2019-04-23T06:29:20.491Z,8.33
2019-04-23T06:31:49.251Z,6.37
2019-04-23T06:34:17.170Z,6.45
2019-04-23T06:36:37.130Z,6.10
2019-04-23T06:39:02.822Z,7.00
2019-04-23T06:41:36.185Z,6.15
2019-04-23T06:44:15.969Z,8.20
2019-04-23T06:46:39.800Z,7.12
2019-04-23T06:49:01.966Z,7.42
2019-04-23T06:53:58.519Z,9.85
2019-04-23T06:56:28.409Z,6.28
2019-04-23T06:58:50.449Z,8.90
2019-04-23T07:01:37.761Z,7.22
2019-04-23T07:03:50.293Z,8.98
2019-04-23T07:06:28.526Z,8.48
2019-04-23T07:09:05.133Z,5.78
2019-04-23T07:13:46.646Z,8.23
2019-04-23T07:16:08.065Z,6.50
2019-04-23T07:18:36.158Z,7.03
2019-04-23T07:21:10.551Z,8.55
2019-04-23T07:23:38.125Z,13.22
2019-04-23T07:26:06.071Z,6.58
2019-04-23T07:28:39.359Z,7.25
2019-04-23T07:31:02.398Z,9.68
2019-04-23T07:33:29.868Z,7.28
2019-04-23T07:35:56.357Z,7.78
2019-04-23T07:38:40.851Z,9.53
2019-04-23T07:41:23.803Z,11.45
2019-04-23T07:43:55.805Z,6.87
2019-04-23T07:46:33.856Z,6.92
2019-04-23T07:48:50.193Z,9.23
2019-04-23T07:51:19.546Z,9.33
2019-04-23T07:53:52.041Z,10.35
2019-04-23T07:56:13.232Z,6.97
2019-04-23T07:58:41.402Z,8.28
2019-04-23T08:01:08.193Z,8.13
2019-04-23T08:03:57.657Z,8.73
2019-04-23T08:06:05.922Z,8.70
2019-04-23T08:08:37.857Z,9.43
2019-04-23T08:11:23.445Z,10.18
2019-04-23T08:13:41.649Z,6.85
2019-04-23T08:15:55.778Z,9.03
2019-04-23T08:18:27.596Z,8.48
2019-04-23T08:20:55.697Z,6.30
2019-04-23T08:23:44.020Z,7.00
2019-04-23T08:29:05.487Z,9.20
2019-04-23T08:31:35.025Z,10.63
2019-04-23T08:34:15.015Z,10.25
2019-04-23T08:36:27.278Z,6.58
2019-04-23T08:38:53.887Z,5.97
2019-04-23T08:43:59.514Z,7.17
2019-04-23T08:46:44.607Z,9.30
2019-04-23T08:49:06.663Z,9.55
2019-04-23T08:54:03.414Z,8.23
2019-04-23T08:56:36.061Z,9.53
2019-04-23T08:59:01.770Z,6.42
2019-04-23T09:01:52.473Z,11.63
2019-04-23T09:03:46.302Z,10.68
2019-04-23T09:06:16.812Z,7.80
2019-04-23T09:08:42.266Z,8.98
2019-04-23T09:11:30.491Z,8.58
2019-04-23T09:16:22.194Z,8.13
2019-04-23T09:18:32.639Z,10.55
2019-04-23T09:21:02.104Z,9.38
2019-04-23T09:25:57.969Z,12.63
2019-04-23T09:28:33.996Z,7.70
2019-04-23T09:31:08.961Z,7.58
2019-04-23T09:33:52.061Z,7.78
2019-04-23T09:39:04.560Z,6.22
2019-04-23T09:41:31.262Z,6.35
2019-04-23T09:47:00.361Z,7.10
2019-04-23T09:49:26.438Z,6.58
2019-04-23T09:51:56.300Z,8.20
2019-04-23T09:54:18.075Z,6.45
2019-04-23T09:56:50.988Z,7.17
2019-04-23T10:01:40.940Z,10.35
2019-04-23T10:03:57.706Z,9.43
2019-04-23T10:06:20.415Z,8.40
2019-04-23T10:08:44.951Z,9.65
2019-04-23T10:11:09.297Z,7.42
2019-04-23T10:13:36.396Z,8.33
2019-04-23T10:16:02.409Z,6.75
2019-04-23T10:18:29.076Z,8.15
2019-04-23T10:20:56.348Z,7.62
2019-04-23T10:23:23.429Z,7.55
2019-04-23T10:25:49.947Z,10.05
2019-04-23T10:28:26.930Z,9.30
2019-04-23T10:30:54.451Z,6.90
2019-04-23T10:33:21.283Z,7.37
2019-04-23T10:35:55.183Z,6.20
2019-04-23T10:38:18.620Z,9.05
2019-04-23T10:40:46.883Z,7.87
2019-04-23T10:43:11.188Z,6.92
2019-04-23T10:46:07.998Z,8.65
2019-04-23T10:49:01.958Z,6.33
2019-04-23T10:54:32.920Z,8.43
2019-04-23T10:56:59.736Z,8.68
2019-04-23T10:59:15.044Z,6.03
2019-04-23T11:04:21.211Z,8.10
2019-04-23T11:06:42.678Z,9.05
2019-04-23T11:09:18.675Z,8.95
2019-04-23T11:11:36.194Z,11.83
2019-04-23T11:14:09.679Z,11.78
2019-04-23T11:16:49.214Z,9.38
2019-04-23T11:19:10.788Z,8.13
2019-04-23T11:24:04.842Z,9.18
2019-04-23T11:28:55.332Z,7.15
2019-04-23T11:33:59.477Z,9.43
2019-04-23T11:38:01.635Z,9.15
2019-04-23T11:38:56.159Z,6.67
2019-04-23T11:41:27.771Z,7.47
2019-04-23T11:43:49.051Z,9.75
2019-04-23T11:48:51.357Z,8.50
2019-04-23T11:53:41.939Z,7.35
2019-04-23T11:56:12.115Z,7.53
2019-04-23T11:58:47.605Z,8.98
2019-04-23T12:01:38.529Z,8.88
2019-04-23T12:04:14.334Z,11.97
2019-04-23T12:09:40.367Z,8.65
2019-04-23T12:14:32.881Z,10.78
2019-04-23T12:17:16.777Z,9.48
2019-04-23T12:22:02.802Z,10.10
2019-04-23T12:24:50.607Z,7.62
2019-04-23T12:27:00.413Z,10.38
2019-04-23T12:29:27.435Z,8.53
2019-04-23T12:32:15.791Z,11.63
2019-04-23T12:34:49.851Z,10.15
2019-04-23T12:37:06.399Z,8.78
2019-04-23T12:39:43.914Z,7.17
2019-04-23T12:42:19.768Z,9.23
2019-04-23T12:44:38.669Z,8.18
2019-04-23T12:47:25.131Z,8.88
2019-04-23T12:52:11.342Z,8.18
2019-04-23T12:54:53.984Z,9.13
2019-04-23T12:57:14.758Z,7.67
2019-04-23T12:59:26.948Z,8.70
2019-04-23T13:02:05.420Z,10.25
2019-04-23T13:04:24.603Z,7.62
2019-04-23T13:06:53.941Z,11.57
2019-04-23T13:09:32.910Z,9.70
2019-04-23T13:11:49.642Z,10.53
2019-04-23T13:14:30.684Z,6.92
2019-04-23T13:16:54.091Z,8.88
2019-04-23T13:19:25.671Z,9.05
2019-04-23T13:24:27.069Z,10.65
2019-04-23T13:26:58.233Z,6.55
2019-04-23T13:29:38.282Z,8.03
2019-04-23T13:31:51.826Z,8.28
2019-04-23T13:34:23.305Z,7.92
2019-04-23T13:36:51.439Z,10.32
2019-04-23T13:39:18.653Z,9.05
2019-04-23T13:41:39.117Z,8.83
2019-04-23T13:44:10.038Z,11.30
2019-04-23T13:46:34.450Z,11.45
2019-04-23T13:49:07.675Z,8.63
2019-04-23T13:54:09.707Z,11.40
2019-04-23T13:59:12.017Z,11.78
2019-04-23T14:01:41.432Z,10.75
2019-04-23T14:04:04.234Z,11.57
2019-04-23T14:06:38.465Z,9.33
2019-04-23T14:11:29.254Z,8.93
2019-04-23T14:13:59.770Z,10.82
2019-04-23T14:16:34.074Z,8.38
2019-04-23T14:26:23.233Z,10.72
2019-04-23T14:31:10.643Z,13.83
2019-04-23T14:33:47.056Z,14.13
2019-04-23T14:36:08.069Z,9.40
2019-04-23T14:38:52.826Z,9.33
2019-04-23T14:41:09.633Z,11.25
2019-04-23T14:43:40.677Z,8.13
2019-04-23T14:48:31.360Z,12.07
2019-04-23T14:51:06.909Z,8.73
2019-04-23T14:53:39.685Z,10.20
2019-04-23T15:01:12.774Z,10.45
2019-04-23T15:03:26.781Z,9.13
2019-04-23T15:06:05.433Z,10.38
2019-04-23T15:08:25.175Z,6.25
2019-04-23T15:10:57.313Z,9.25
2019-04-23T15:13:16.887Z,10.40
2019-04-23T15:15:44.299Z,9.70
2019-04-23T15:18:13.516Z,10.03
2019-04-23T15:20:41.347Z,12.13
2019-04-23T15:23:25.074Z,11.18
2019-04-23T15:25:54.043Z,11.35
2019-04-23T15:28:06.903Z,7.67
2019-04-23T15:30:32.233Z,11.30
2019-04-23T15:33:09.859Z,12.13
2019-04-23T15:35:45.796Z,13.13
2019-04-23T15:38:18.575Z,9.60
2019-04-23T15:40:30.240Z,12.65
2019-04-23T15:42:58.301Z,9.88
2019-04-23T15:45:22.876Z,13.98
2019-04-23T15:50:22.661Z,13.08
2019-04-23T15:52:54.631Z,9.08
2019-04-23T15:55:12.593Z,11.08
2019-04-23T16:00:08.789Z,9.53
2019-04-23T16:02:09.928Z,14.00
2019-04-23T16:04:37.780Z,12.68
2019-04-23T16:07:04.543Z,12.60
2019-04-23T16:10:04.373Z,13.80
2019-04-23T16:12:25.539Z,9.65
2019-04-23T16:20:19.488Z,11.80
2019-04-23T16:22:36.698Z,10.45
2019-04-23T16:25:06.697Z,11.03
2019-04-23T16:27:26.036Z,9.73
2019-04-23T16:30:12.785Z,13.75
2019-04-23T16:35:19.889Z,12.80
2019-04-23T16:37:53.164Z,12.47
2019-04-23T16:40:19.986Z,11.80
2019-04-23T16:42:38.703Z,13.88
2019-04-23T16:45:12.398Z,9.83
2019-04-23T16:50:11.166Z,8.38
2019-04-23T16:52:26.693Z,8.23
2019-04-23T16:55:01.980Z,8.45
2019-04-23T17:04:56.670Z,9.88
2019-04-23T17:07:12.054Z,10.70
2019-04-23T17:09:53.586Z,12.23
2019-04-23T17:12:15.064Z,12.37
2019-04-23T17:14:41.353Z,9.98
2019-04-23T17:17:06.496Z,10.58
2019-04-23T17:19:40.888Z,9.63
2019-04-23T17:22:04.235Z,8.85
2019-04-23T17:24:30.523Z,13.08
2019-04-23T17:27:08.549Z,13.28
2019-04-23T17:32:10.423Z,7.40
2019-04-23T17:37:24.954Z,11.35
2019-04-23T17:40:08.667Z,9.38
2019-04-23T17:42:24.391Z,10.45
2019-04-23T17:45:16.306Z,13.00
2019-04-23T17:47:28.537Z,12.40
2019-04-23T17:50:10.728Z,11.95
2019-04-23T17:52:26.351Z,9.55
2019-04-23T17:54:56.753Z,12.33
2019-04-23T17:57:22.612Z,13.15
2019-04-23T18:02:51.650Z,14.70
2019-04-23T18:04:58.820Z,10.03
2019-04-23T18:07:32.315Z,9.60
2019-04-23T18:09:51.647Z,11.70
2019-04-23T18:12:21.864Z,14.40
2019-04-23T18:14:40.696Z,10.75
2019-04-23T18:17:13.033Z,13.62
2019-04-23T18:19:32.420Z,11.88
2019-04-23T18:24:59.039Z,12.60
2019-04-23T18:27:23.600Z,12.03
2019-04-23T18:37:26.140Z,14.65
2019-04-23T18:39:49.932Z,9.20
2019-04-23T18:42:25.870Z,13.18
2019-04-23T18:47:21.074Z,10.75
2019-04-23T18:52:20.976Z,9.78
2019-04-23T18:54:38.444Z,10.82
2019-04-23T18:57:15.538Z,13.30
2019-04-23T19:02:35.213Z,12.60
2019-04-23T19:05:03.821Z,12.03
2019-04-23T19:07:34.908Z,18.23
2019-04-23T19:12:44.398Z,13.30
2019-04-23T19:15:15.442Z,10.53
2019-04-23T19:20:01.088Z,12.35
2019-04-23T19:22:38.145Z,16.35
2019-04-23T19:25:01.728Z,16.20
2019-04-23T19:30:30.102Z,16.90
2019-04-23T19:32:33.623Z,20.05
2019-04-23T19:34:52.982Z,13.22
2019-04-23T19:37:34.443Z,19.50
2019-04-23T19:39:47.832Z,12.13
2019-04-23T19:44:47.743Z,15.23
2019-04-23T19:47:17.405Z,12.70
2019-04-23T19:49:41.827Z,12.47
2019-04-23T19:52:14.455Z,15.38
2019-04-23T19:57:22.336Z,17.77
2019-04-23T20:02:07.218Z,15.15
2019-04-23T20:04:40.719Z,12.63
2019-04-23T20:09:43.166Z,11.57
2019-04-23T20:12:01.008Z,14.35
2019-04-23T20:14:32.521Z,12.25
2019-04-23T20:17:20.341Z,12.60
2019-04-23T20:19:31.623Z,12.00
2019-04-23T20:22:00.339Z,11.05
2019-04-23T20:26:51.441Z,15.00
2019-04-23T20:29:29.804Z,14.85
2019-04-23T20:36:49.413Z,12.73
2019-04-23T20:39:22.483Z,17.77
2019-04-23T20:44:23.647Z,13.08
2019-04-23T20:46:52.364Z,15.55
2019-04-23T20:49:21.374Z,17.05
2019-04-23T20:51:53.131Z,11.70
2019-04-23T20:54:18.673Z,15.13
2019-04-23T20:56:49.910Z,21.30
2019-04-23T21:02:07.576Z,15.35
2019-04-23T21:04:28.192Z,20.50
2019-04-23T21:06:56.383Z,12.23
2019-04-23T21:09:28.212Z,14.20
2019-04-23T21:12:08.354Z,14.83
2019-04-23T21:14:30.082Z,13.58
2019-04-23T21:16:41.551Z,12.98
2019-04-23T21:19:11.345Z,12.60
2019-04-23T21:21:48.929Z,12.23
2019-04-23T21:24:27.418Z,12.50
2019-04-23T21:26:39.153Z,14.85
2019-04-23T21:28:58.926Z,20.25
2019-04-23T21:31:37.664Z,13.85
2019-04-23T21:34:05.975Z,19.92
2019-04-23T21:36:43.104Z,19.82
2019-04-23T21:41:45.240Z,15.03
2019-04-23T21:51:44.900Z,15.32
2019-04-23T21:53:55.414Z,17.10
2019-04-23T21:56:21.187Z,17.60
2019-04-23T21:58:58.040Z,15.88
2019-04-23T22:04:08.756Z,13.00
2019-04-23T22:06:22.435Z,15.08
2019-04-23T22:08:52.456Z,16.60
2019-04-23T22:11:43.886Z,21.62
2019-04-23T22:13:58.368Z,16.93
2019-04-23T22:16:14.649Z,12.20
2019-04-23T22:18:49.701Z,10.23
2019-04-23T22:21:15.318Z,14.95
2019-04-23T22:23:42.019Z,13.38
2019-04-23T22:26:23.554Z,18.30
2019-04-23T22:28:43.436Z,12.28
2019-04-23T22:31:12.343Z,21.02
2019-04-23T22:33:29.106Z,14.38
2019-04-23T22:40:58.194Z,11.00
2019-04-23T22:43:23.824Z,11.78
2019-04-23T22:48:17.355Z,14.95
2019-04-23T22:55:49.428Z,11.78
2019-04-23T23:00:33.685Z,18.27
2019-04-23T23:03:27.001Z,13.70
2019-04-23T23:08:34.514Z,16.77
2019-04-23T23:10:51.865Z,10.65
2019-04-23T23:13:35.752Z,16.30
2019-04-23T23:20:47.932Z,12.82
2019-04-23T23:23:11.176Z,12.30
2019-04-23T23:25:47.857Z,15.58
2019-04-23T23:28:15.201Z,13.48
2019-04-23T23:30:38.582Z,13.35
2019-04-23T23:33:07.856Z,15.58
2019-04-23T23:35:29.552Z,15.85
2019-04-23T23:37:58.893Z,16.05
2019-04-23T23:40:25.618Z,16.90
2019-04-23T23:45:25.276Z,14.28
2019-04-23T23:47:59.192Z,13.58
2019-04-23T23:52:56.998Z,18.95
2019-04-23T23:55:15.755Z,17.17
2019-04-23T23:57:41.658Z,14.75
